Time;durP1;ratioP1;P1;durP2;ratioP2;P2;SDS_P1;SDS_P2;PMS_P1;PMS_P2;Temp;Humidity;BMP_temperature;BMP_pressure;BME280_temperature;BME280_humidity;BME280_pressure;Samples;Min_cycle;Max_cycle;Signal;HPM_P1;HPM_P2
2023/01/05 00:00:43;;;;;;;2.05;1.13;;;11.10;99.90;;;;;;2524453;23;20037;-77
2023/01/05 00:01:44;;;;;;;2.10;1.00;;;11.10;99.90;;;;;;2538783;23;20074;-76
2023/01/05 00:02:44;;;;;;;2.67;1.10;;;11.20;99.90;;;;;;2524243;23;20041;-77
2023/01/05 00:03:45;;;;;;;1.83;0.90;;;11.20;99.90;;;;;;2549078;23;20070;-76
2023/01/05 00:04:46;;;;;;;2.10;1.08;;;11.20;99.90;;;;;;2548653;23;20107;-76
2023/01/05 00:05:46;;;;;;;3.60;1.30;;;11.20;99.90;;;;;;2526491;23;20115;-75
2023/01/05 00:06:47;;;;;;;2.08;1.10;;;11.20;99.90;;;;;;2536496;23;20071;-75
2023/01/05 00:07:49;;;;;;;3.03;1.20;;;11.20;99.90;;;;;;2560981;23;20413;-76
2023/01/05 00:08:50;;;;;;;2.55;1.00;;;11.30;99.90;;;;;;2548830;23;20063;-77
2023/01/05 00:09:51;;;;;;;2.13;0.90;;;11.30;99.90;;;;;;2536547;23;20002;-78
2023/01/05 00:22:54;;;;;;;5.00;1.40;;;11.40;99.90;;;;;;2550571;23;20305;-75
2023/01/05 00:24:20;;;;;;;3.83;1.00;;;11.40;99.90;;;;;;2548662;23;20502;-75
2023/01/05 00:25:23;;;;;;;4.07;1.20;;;11.40;99.90;;;;;;2548921;23;20080;-77
2023/01/05 00:26:24;;;;;;;4.22;1.33;;;11.50;99.90;;;;;;2548928;23;20158;-77
2023/01/05 00:27:26;;;;;;;3.13;0.98;;;11.50;99.90;;;;;;2538597;23;20025;-75
2023/01/05 00:28:26;;;;;;;4.85;1.20;;;11.50;99.90;;;;;;2536154;23;20014;-77
2023/01/05 00:29:27;;;;;;;4.72;1.50;;;11.50;99.90;;;;;;2512183;23;20018;-75
2023/01/05 00:30:31;;;;;;;4.05;1.10;;;11.50;99.90;;;;;;2536236;23;20431;-75
2023/01/05 00:31:32;;;;;;;2.70;1.30;;;11.60;99.90;;;;;;2551936;23;20108;-75
2023/01/05 00:32:33;;;;;;;5.20;1.42;;;11.60;99.90;;;;;;2538410;23;20476;-75
2023/01/05 00:33:33;;;;;;;4.38;1.30;;;11.60;99.90;;;;;;2538508;23;20280;-74
2023/01/05 00:34:34;;;;;;;3.63;1.40;;;11.60;99.90;;;;;;2561317;23;20013;-75
2023/01/05 00:35:35;;;;;;;3.83;1.30;;;11.60;99.90;;;;;;2536432;23;19997;-76
2023/01/05 00:36:35;;;;;;;3.00;1.30;;;11.60;99.90;;;;;;2536460;23;20104;-76
2023/01/05 00:37:37;;;;;;;4.47;1.38;;;11.60;99.90;;;;;;2550641;23;20392;-76
2023/01/05 00:38:38;;;;;;;4.93;1.40;;;11.60;99.90;;;;;;2548374;23;20687;-76
2023/01/05 00:39:40;;;;;;;3.22;1.20;;;11.60;99.90;;;;;;2548763;23;19997;-75
2023/01/05 00:40:40;;;;;;;3.83;1.33;;;11.60;99.90;;;;;;2548221;23;20001;-75
2023/01/05 00:41:41;;;;;;;5.20;1.40;;;11.60;99.90;;;;;;2550970;23;20040;-74
2023/01/05 00:42:42;;;;;;;4.15;1.30;;;11.60;99.90;;;;;;2548404;23;20083;-75
2023/01/05 00:43:43;;;;;;;3.63;1.27;;;11.60;99.90;;;;;;2548265;23;20024;-74
2023/01/05 00:44:44;;;;;;;4.75;1.35;;;11.60;99.90;;;;;;2531230;23;20591;-74
2023/01/05 00:45:45;;;;;;;6.68;1.70;;;11.60;99.90;;;;;;2550499;23;20013;-75
2023/01/05 00:46:45;;;;;;;4.32;1.27;;;11.60;99.90;;;;;;2561317;23;20453;-74
2023/01/05 00:47:46;;;;;;;3.55;1.38;;;11.60;99.90;;;;;;2548560;23;20330;-75
2023/01/05 00:48:47;;;;;;;3.55;1.23;;;11.60;99.90;;;;;;2548965;23;20005;-77
2023/01/05 00:49:48;;;;;;;4.80;1.40;;;11.60;99.90;;;;;;2538667;23;20006;-78
2023/01/05 00:50:49;;;;;;;5.72;1.42;;;11.60;99.90;;;;;;2536736;23;20009;-77
2023/01/05 00:51:49;;;;;;;6.40;1.42;;;11.60;99.90;;;;;;2536501;23;20081;-75
2023/01/05 00:52:50;;;;;;;5.47;1.60;;;11.60;99.90;;;;;;2512168;23;20413;-76
2023/01/05 00:53:51;;;;;;;3.58;1.23;;;11.60;99.90;;;;;;2536494;23;20045;-76
2023/01/05 00:54:51;;;;;;;3.53;1.40;;;11.60;99.90;;;;;;2536525;23;20002;-75
2023/01/05 00:55:57;;;;;;;6.55;1.60;;;11.70;99.90;;;;;;2538561;23;20028;-74
2023/01/05 00:56:57;;;;;;;6.40;1.30;;;11.70;99.90;;;;;;2537366;23;20049;-74
2023/01/05 00:57:58;;;;;;;3.45;1.30;;;11.70;99.90;;;;;;2536367;23;20064;-76
2023/01/05 00:58:59;;;;;;;2.90;1.30;;;11.70;99.90;;;;;;2536212;23;20071;-77
2023/01/05 01:00:01;;;;;;;6.07;1.50;;;11.70;99.90;;;;;;2550716;23;20453;-76
2023/01/05 01:01:08;;;;;;;4.53;1.30;;;11.70;99.90;;;;;;2536168;23;20013;-75
2023/01/05 01:02:09;;;;;;;3.65;1.40;;;11.70;99.90;;;;;;2526704;23;20566;-74
2023/01/05 01:03:10;;;;;;;4.40;1.38;;;11.60;99.90;;;;;;2536391;23;20059;-73
2023/01/05 01:04:10;;;;;;;5.65;1.35;;;11.70;99.90;;;;;;2548479;23;20690;-73
2023/01/05 01:05:11;;;;;;;6.63;1.20;;;11.70;99.90;;;;;;2536367;23;20037;-75
2023/01/05 01:06:13;;;;;;;3.95;1.13;;;11.60;99.90;;;;;;2548208;23;20088;-73
2023/01/05 01:07:13;;;;;;;3.85;1.20;;;11.60;99.90;;;;;;2538431;23;20748;-73
2023/01/05 01:08:23;;;;;;;4.95;1.50;;;11.60;99.90;;;;;;2536492;23;20077;-73
2023/01/05 01:09:24;;;;;;;4.03;1.30;;;11.60;99.90;;;;;;2548952;23;20009;-76
2023/01/05 01:10:25;;;;;;;4.07;1.27;;;11.60;99.90;;;;;;2548761;23;20610;-76
2023/01/05 01:11:25;;;;;;;4.65;1.45;;;11.60;99.90;;;;;;2524365;23;20010;-75
2023/01/05 01:12:26;;;;;;;4.07;1.27;;;11.60;99.90;;;;;;2538406;23;20044;-79
2023/01/05 01:13:27;;;;;;;6.03;1.52;;;11.60;99.90;;;;;;2524313;23;20021;-75
2023/01/05 01:14:29;;;;;;;6.10;1.42;;;11.60;99.90;;;;;;2536473;23;20005;-77
2023/01/05 01:15:30;;;;;;;4.13;1.30;;;11.60;99.90;;;;;;2535984;23;20498;-75
2023/01/05 01:16:31;;;;;;;3.85;1.48;;;11.60;99.90;;;;;;2536151;23;20502;-75
2023/01/05 01:17:32;;;;;;;5.07;1.30;;;11.60;99.90;;;;;;2526280;23;19998;-75
2023/01/05 01:18:32;;;;;;;4.05;1.15;;;11.60;99.90;;;;;;2536012;23;19998;-75
2023/01/05 01:19:33;;;;;;;4.00;1.48;;;11.60;99.90;;;;;;2536609;23;20016;-75
2023/01/05 01:20:36;;;;;;;5.25;1.55;;;11.60;99.90;;;;;;2538116;23;20445;-75
2023/01/05 01:21:37;;;;;;;4.72;1.35;;;11.60;99.90;;;;;;2526420;23;20010;-75
2023/01/05 01:22:37;;;;;;;4.15;1.33;;;11.60;99.90;;;;;;2524093;23;20521;-75
2023/01/05 01:23:38;;;;;;;3.85;1.38;;;11.60;99.90;;;;;;2536518;23;20435;-75
2023/01/05 01:24:39;;;;;;;3.15;1.15;;;11.60;99.90;;;;;;2536057;23;20037;-75
2023/01/05 01:25:40;;;;;;;4.50;1.20;;;11.60;99.90;;;;;;2548636;23;20011;-75
2023/01/05 01:26:42;;;;;;;3.50;1.50;;;11.50;99.90;;;;;;2548499;23;20172;-75
2023/01/05 01:27:42;;;;;;;4.47;1.45;;;11.50;99.90;;;;;;2538039;23;20012;-75
2023/01/05 01:28:46;;;;;;;4.70;1.60;;;11.50;99.90;;;;;;2536481;23;20016;-74
2023/01/05 01:29:47;;;;;;;6.10;1.58;;;11.50;99.90;;;;;;2536949;23;20025;-75
2023/01/05 01:30:48;;;;;;;3.20;1.30;;;11.50;99.90;;;;;;2536052;23;20014;-75
2023/01/05 01:31:51;;;;;;;5.13;1.60;;;11.50;99.90;;;;;;2538240;23;20108;-75
2023/01/05 01:32:52;;;;;;;6.55;1.55;;;11.50;99.90;;;;;;2538856;23;20092;-75
2023/01/05 01:33:53;;;;;;;4.40;1.50;;;11.50;99.90;;;;;;2536105;23;20470;-76
2023/01/05 01:34:54;;;;;;;5.53;1.88;;;11.50;99.90;;;;;;2536006;23;20101;-76
2023/01/05 01:35:55;;;;;;;5.03;1.75;;;11.50;99.90;;;;;;2524029;23;20010;-74
2023/01/05 01:36:56;;;;;;;6.35;1.60;;;11.50;99.90;;;;;;2511992;23;20096;-73
2023/01/05 01:38:00;;;;;;;6.63;1.58;;;11.50;99.90;;;;;;2527556;23;20489;-74
2023/01/05 01:39:01;;;;;;;4.43;1.65;;;11.50;99.90;;;;;;2536055;23;20013;-75
2023/01/05 01:40:07;;;;;;;7.80;1.70;;;11.50;99.90;;;;;;2536654;23;20397;-75
2023/01/05 01:41:11;;;;;;;7.13;1.77;;;11.50;99.90;;;;;;2524043;23;20014;-75
2023/01/05 01:42:16;;;;;;;5.38;1.73;;;11.50;99.90;;;;;;2524967;23;20018;-76
2023/01/05 01:43:37;;;;;;;4.20;1.52;;;11.50;99.90;;;;;;2548077;23;20310;-72
2023/01/05 01:44:52;;;;;;;6.80;1.70;;;11.60;99.90;;;;;;2535137;23;20080;-74
2023/01/05 01:45:55;;;;;;;5.15;1.83;;;11.60;99.90;;;;;;2528855;23;20006;-75
2023/01/05 01:46:55;;;;;;;7.05;1.77;;;11.60;99.90;;;;;;2524403;23;20010;-75
2023/01/05 01:47:58;;;;;;;7.13;1.85;;;11.70;99.90;;;;;;2536360;23;20006;-76
2023/01/05 01:49:09;;;;;;;8.93;1.80;;;11.70;99.90;;;;;;2547853;23;20008;-75
2023/01/05 01:50:21;;;;;;;7.05;1.70;;;11.70;99.90;;;;;;2538040;23;20359;-76
2023/01/05 01:51:36;;;;;;;6.75;2.08;;;11.70;99.90;;;;;;2527262;23;20232;-75
2023/01/05 01:52:38;;;;;;;5.35;1.70;;;11.70;99.90;;;;;;2519633;23;20484;-82
2023/01/05 01:53:43;;;;;;;6.63;1.70;;;11.70;99.90;;;;;;2525923;23;20029;-71
2023/01/05 01:54:44;;;;;;;6.57;1.73;;;11.60;99.90;;;;;;2539721;23;20016;-87
2023/01/05 01:55:46;;;;;;;6.65;1.88;;;11.60;99.90;;;;;;2551688;23;20005;-74
2023/01/05 01:56:52;;;;;;;6.93;1.73;;;11.60;99.90;;;;;;2527260;23;20105;-70
2023/01/05 01:57:53;;;;;;;7.00;2.00;;;11.60;99.90;;;;;;2525895;23;20435;-70
2023/01/05 01:58:54;;;;;;;6.95;1.92;;;11.60;99.90;;;;;;2536799;23;20399;-71
2023/01/05 01:59:58;;;;;;;6.03;2.00;;;11.60;99.90;;;;;;2536640;23;20048;-70
2023/01/05 02:01:02;;;;;;;7.18;1.90;;;11.60;99.90;;;;;;2525911;23;20013;-71
2023/01/05 02:02:05;;;;;;;5.82;1.88;;;11.60;99.90;;;;;;2525180;23;20466;-70
2023/01/05 02:03:06;;;;;;;10.35;2.13;;;11.60;99.90;;;;;;2515316;23;20018;-70
2023/01/05 02:04:08;;;;;;;5.78;1.88;;;11.50;99.90;;;;;;2524778;23;20017;-71
2023/01/05 02:05:12;;;;;;;5.65;1.73;;;11.50;99.90;;;;;;2524745;23;20481;-71
2023/01/05 02:06:13;;;;;;;5.82;1.80;;;11.50;99.90;;;;;;2525730;23;20440;-71
2023/01/05 02:07:24;;;;;;;7.40;2.30;;;11.50;99.90;;;;;;2539513;23;20013;-70
2023/01/05 02:08:30;;;;;;;6.63;1.90;;;11.50;99.90;;;;;;2551184;23;20336;-71
2023/01/05 02:09:31;;;;;;;6.53;1.83;;;11.60;99.90;;;;;;2540037;23;20040;-70
2023/01/05 02:10:44;;;;;;;6.57;1.83;;;11.60;99.90;;;;;;2537086;23;20010;-70
2023/01/05 02:12:09;;;;;;;11.50;2.15;;;11.50;99.90;;;;;;2549050;23;20064;-70
2023/01/05 02:13:23;;;;;;;7.38;2.00;;;11.50;99.90;;;;;;2553266;23;20008;-70
2023/01/05 02:14:39;;;;;;;6.65;1.77;;;11.50;99.90;;;;;;2538709;23;20458;-70
2023/01/05 02:15:51;;;;;;;7.10;2.10;;;11.50;99.90;;;;;;2533170;23;20014;-71
2023/01/05 02:17:22;;;;;;;6.95;1.90;;;11.50;99.90;;;;;;2540090;23;20006;-71
2023/01/05 02:18:45;;;;;;;7.28;2.28;;;11.60;99.90;;;;;;2542631;23;20095;-71
2023/01/05 02:20:13;;;;;;;8.52;2.00;;;11.50;99.90;;;;;;2538667;23;20010;-70
2023/01/05 02:21:44;;;;;;;7.45;2.03;;;11.50;99.90;;;;;;2535746;23;20013;-70
2023/01/05 02:23:18;;;;;;;8.98;2.05;;;11.50;99.90;;;;;;2530669;23;20020;-70
2023/01/05 02:24:33;;;;;;;7.72;1.90;;;11.50;99.90;;;;;;2545305;23;20120;-70
2023/01/05 02:26:03;;;;;;;9.05;2.42;;;11.50;99.90;;;;;;2563724;23;20543;-70
2023/01/05 02:27:25;;;;;;;7.25;1.90;;;11.50;99.90;;;;;;2549306;23;20569;-70
2023/01/05 02:28:50;;;;;;;7.53;2.20;;;11.50;99.90;;;;;;2548960;23;20070;-70
2023/01/05 02:30:36;;;;;;;8.27;2.08;;;11.40;99.90;;;;;;2529653;23;20016;-70
2023/01/05 02:31:54;;;;;;;9.85;2.00;;;11.40;99.90;;;;;;2520357;23;20074;-71
2023/01/05 02:33:05;;;;;;;7.82;1.95;;;11.50;99.90;;;;;;2523398;23;20037;-71
2023/01/05 02:34:20;;;;;;;7.10;1.90;;;11.50;99.90;;;;;;2526877;23;20467;-70
2023/01/05 02:35:44;;;;;;;7.13;1.92;;;11.50;99.90;;;;;;2530273;23;20454;-70
2023/01/05 02:36:52;;;;;;;7.03;2.17;;;11.50;99.90;;;;;;2531243;23;20064;-70
2023/01/05 02:38:15;;;;;;;8.55;2.20;;;11.50;99.90;;;;;;2529023;23;20517;-71
2023/01/05 02:39:18;;;;;;;8.27;1.98;;;11.40;99.90;;;;;;2522777;23;20005;-71
2023/01/05 02:40:31;;;;;;;7.18;2.30;;;11.40;99.90;;;;;;2527401;23;20014;-71
2023/01/05 02:41:49;;;;;;;9.57;2.45;;;11.30;99.90;;;;;;2528603;23;20390;-71
2023/01/05 02:42:54;;;;;;;7.25;1.90;;;11.20;99.90;;;;;;2532936;23;20101;-71
2023/01/05 02:43:56;;;;;;;8.57;2.13;;;11.20;99.90;;;;;;2526114;23;20006;-71
2023/01/05 02:45:00;;;;;;;7.72;2.25;;;11.10;99.90;;;;;;2523605;23;20022;-70
2023/01/05 02:46:01;;;;;;;8.27;2.45;;;11.10;99.90;;;;;;2517539;23;20086;-71
2023/01/05 02:47:06;;;;;;;7.18;2.33;;;11.00;99.90;;;;;;2526197;23;20021;-71
2023/01/05 02:48:06;;;;;;;6.82;2.08;;;11.00;99.90;;;;;;2551026;23;20012;-71
2023/01/05 02:49:11;;;;;;;7.78;2.00;;;11.00;99.90;;;;;;2536908;23;20010;-71
2023/01/05 02:50:18;;;;;;;9.02;2.20;;;11.00;99.90;;;;;;2537923;23;20080;-71
2023/01/05 02:51:25;;;;;;;8.50;2.20;;;11.00;99.90;;;;;;2526042;23;20013;-71
2023/01/05 02:52:35;;;;;;;8.93;2.25;;;11.00;99.90;;;;;;2529071;23;20017;-71
2023/01/05 02:53:41;;;;;;;8.02;2.33;;;11.00;99.90;;;;;;2526132;23;20002;-75
2023/01/05 02:54:51;;;;;;;8.70;2.10;;;11.00;99.90;;;;;;2526604;23;20010;-73
2023/01/05 02:56:27;;;;;;;9.05;2.10;;;11.10;99.90;;;;;;2538564;23;20069;-74
2023/01/05 02:57:45;;;;;;;6.85;2.22;;;11.10;99.90;;;;;;2542262;23;20009;-74
2023/01/05 02:58:56;;;;;;;9.43;2.10;;;11.10;99.90;;;;;;2540843;23;20040;-75
2023/01/05 02:59:57;;;;;;;7.50;2.20;;;11.10;99.90;;;;;;2525797;23;20014;-75
2023/01/05 03:01:26;;;;;;;9.57;2.72;;;11.00;99.90;;;;;;2526704;23;20010;-75
2023/01/05 03:02:29;;;;;;;6.30;2.10;;;11.10;99.90;;;;;;2533548;23;20013;-74
2023/01/05 03:03:35;;;;;;;8.20;2.28;;;11.00;99.90;;;;;;2537053;23;20040;-74
2023/01/05 03:04:51;;;;;;;8.93;2.40;;;11.10;99.90;;;;;;2525480;23;20450;-74
2023/01/05 03:05:58;;;;;;;9.55;2.50;;;11.10;99.90;;;;;;2527507;23;20420;-75
2023/01/05 03:07:03;;;;;;;9.88;2.55;;;11.10;99.90;;;;;;2527140;23;20014;-75
2023/01/05 03:08:06;;;;;;;9.10;2.30;;;11.20;99.90;;;;;;2524890;23;20474;-74
2023/01/05 03:09:09;;;;;;;11.07;2.55;;;11.10;99.90;;;;;;2526099;23;20009;-75
2023/01/05 03:14:32;;;;;;;6.53;2.20;;;11.10;99.90;;;;;;2541426;23;20000;-74
2023/01/05 03:15:36;;;;;;;8.68;2.30;;;11.20;99.90;;;;;;2537946;23;20013;-73
2023/01/05 03:16:38;;;;;;;8.40;2.67;;;11.20;99.90;;;;;;2536480;23;20005;-74
2023/01/05 03:17:44;;;;;;;8.25;2.50;;;11.20;99.90;;;;;;2525156;23;20041;-74
2023/01/05 03:20:07;;;;;;;9.68;2.45;;;11.20;99.90;;;;;;2540361;23;20024;-74
2023/01/05 03:21:08;;;;;;;8.20;2.65;;;11.20;99.90;;;;;;2536706;23;20160;-73
2023/01/05 03:35:30;;;;;;;;;;;11.30;99.90;;;;;;2552000;23;20431;-74
2023/01/05 03:36:41;;;;;;;11.32;2.30;;;11.40;99.90;;;;;;2549326;23;19908;-74
2023/01/05 03:38:07;;;;;;;10.75;2.70;;;11.40;99.90;;;;;;2536729;23;20328;-74
2023/01/05 03:39:10;;;;;;;11.63;2.20;;;11.40;99.90;;;;;;2543653;23;20013;-73
2023/01/05 03:40:21;;;;;;;10.50;2.42;;;11.40;99.90;;;;;;2526965;23;20038;-75
2023/01/05 03:41:26;;;;;;;11.77;2.58;;;11.50;99.90;;;;;;2531089;23;20375;-73
2023/01/05 03:42:31;;;;;;;9.35;2.42;;;11.40;99.90;;;;;;2537567;23;20009;-74
2023/01/05 03:43:35;;;;;;;9.07;2.30;;;11.50;99.90;;;;;;2536972;23;20059;-73
2023/01/05 03:44:39;;;;;;;8.73;2.30;;;11.50;99.90;;;;;;2532788;23;20009;-74
2023/01/05 03:45:49;;;;;;;9.45;2.53;;;11.50;99.90;;;;;;2537610;23;20017;-73
2023/01/05 03:46:55;;;;;;;12.93;2.70;;;11.40;99.90;;;;;;2527018;23;20063;-73
2023/01/05 03:47:56;;;;;;;12.43;3.13;;;11.40;99.90;;;;;;2515336;23;20034;-74
2023/01/05 03:49:00;;;;;;;11.73;2.55;;;11.40;99.90;;;;;;2528150;23;20178;-73
2023/01/05 03:50:01;;;;;;;12.32;2.47;;;11.40;99.90;;;;;;2524390;23;20480;-73
2023/01/05 03:51:03;;;;;;;11.68;2.58;;;11.50;99.90;;;;;;2536732;23;20013;-74
2023/01/05 03:52:04;;;;;;;11.75;2.70;;;11.50;99.90;;;;;;2548806;23;20001;-73
2023/01/05 03:53:06;;;;;;;11.18;2.78;;;11.50;99.90;;;;;;2551138;23;20056;-73
2023/01/05 03:54:07;;;;;;;10.02;2.42;;;11.50;99.90;;;;;;2537557;23;20319;-73
2023/01/05 03:55:10;;;;;;;9.35;2.85;;;11.40;99.90;;;;;;2524960;23;20088;-74
2023/01/05 03:56:11;;;;;;;10.02;2.55;;;11.50;99.90;;;;;;2537500;23;20020;-74
2023/01/05 03:57:11;;;;;;;10.55;2.90;;;11.50;99.90;;;;;;2524580;23;20470;-73
2023/01/05 03:58:12;;;;;;;10.63;2.65;;;11.50;99.90;;;;;;2526539;23;20081;-73
2023/01/05 03:59:18;;;;;;;8.00;2.20;;;11.50;99.90;;;;;;2527607;23;20383;-73
2023/01/05 04:00:19;;;;;;;10.63;2.58;;;11.50;99.90;;;;;;2525382;23;20498;-73
2023/01/05 04:01:28;;;;;;;10.35;2.40;;;11.50;99.90;;;;;;2513920;23;20010;-75
2023/01/05 04:02:29;;;;;;;10.70;3.08;;;11.50;99.90;;;;;;2527508;23;20009;-73
2023/01/05 04:03:30;;;;;;;6.90;2.50;;;11.50;99.90;;;;;;2536431;23;19996;-73
2023/01/05 04:04:31;;;;;;;10.50;2.47;;;11.50;99.90;;;;;;2524181;23;20443;-73
2023/01/05 04:05:33;;;;;;;8.80;2.33;;;11.50;99.90;;;;;;2537125;23;20101;-73
2023/01/05 04:06:34;;;;;;;9.95;2.05;;;11.50;99.90;;;;;;2526817;23;20208;-73
2023/01/05 04:07:35;;;;;;;8.25;2.47;;;11.60;99.90;;;;;;2524567;23;20002;-73
2023/01/05 04:08:35;;;;;;;9.40;2.22;;;11.60;99.90;;;;;;2536331;23;20009;-73
2023/01/05 04:09:36;;;;;;;9.98;2.72;;;11.60;99.90;;;;;;2536761;23;20364;-73
2023/01/05 04:10:37;;;;;;;8.80;2.30;;;11.60;99.90;;;;;;2536341;23;20011;-73
2023/01/05 04:11:38;;;;;;;14.10;2.80;;;11.50;99.90;;;;;;2526535;23;20470;-74
2023/01/05 04:12:41;;;;;;;11.80;2.45;;;11.40;99.90;;;;;;2512956;23;20459;-74
2023/01/05 04:13:41;;;;;;;11.50;2.92;;;11.30;99.90;;;;;;2524086;23;20012;-73
2023/01/05 04:14:42;;;;;;;10.65;2.30;;;11.30;99.90;;;;;;2524446;23;20472;-74
2023/01/05 04:15:43;;;;;;;9.80;2.65;;;11.20;99.90;;;;;;2526577;23;20073;-73
2023/01/05 04:16:45;;;;;;;10.70;2.97;;;11.10;99.90;;;;;;2526327;23;20064;-74
2023/01/05 04:17:55;;;;;;;10.07;2.88;;;11.10;99.90;;;;;;2539912;23;20001;-74
2023/01/05 04:18:56;;;;;;;13.25;2.80;;;11.00;99.90;;;;;;2538591;23;20084;-74
2023/01/05 04:19:57;;;;;;;10.27;2.80;;;11.00;99.90;;;;;;2536196;23;20012;-75
2023/01/05 04:21:04;;;;;;;9.85;2.90;;;10.90;99.90;;;;;;2536673;23;20059;-74
2023/01/05 04:22:05;;;;;;;13.25;3.15;;;10.90;99.90;;;;;;2537779;23;20005;-74
2023/01/05 04:23:06;;;;;;;14.32;2.90;;;10.90;99.90;;;;;;2538542;23;20006;-74
2023/01/05 04:24:12;;;;;;;13.32;2.95;;;10.80;99.90;;;;;;2538584;23;20403;-74
2023/01/05 04:25:15;;;;;;;13.90;2.75;;;10.80;99.90;;;;;;2537419;23;20061;-74
2023/01/05 04:26:17;;;;;;;8.15;2.58;;;10.80;99.90;;;;;;2536687;23;20032;-74
2023/01/05 04:27:22;;;;;;;12.88;2.80;;;10.70;99.90;;;;;;2536810;23;20068;-73
2023/01/05 04:28:22;;;;;;;12.40;3.08;;;10.70;99.90;;;;;;2524009;23;20856;-74
2023/01/05 04:29:23;;;;;;;11.15;2.72;;;10.70;99.90;;;;;;2524194;23;20032;-73
2023/01/05 04:30:24;;;;;;;12.45;3.00;;;10.70;99.90;;;;;;2538585;23;20005;-73
2023/01/05 04:31:25;;;;;;;11.88;2.83;;;10.70;99.90;;;;;;2536139;23;20465;-75
2023/01/05 04:32:29;;;;;;;12.57;2.83;;;10.70;99.90;;;;;;2536785;23;20534;-75
2023/01/05 04:33:29;;;;;;;8.88;2.85;;;10.70;99.90;;;;;;2535815;23;20013;-75
2023/01/05 04:34:30;;;;;;;12.10;2.90;;;10.70;99.90;;;;;;2538009;23;20029;-74
2023/01/05 04:35:33;;;;;;;12.40;2.78;;;10.70;99.90;;;;;;2524632;23;20380;-73
2023/01/05 04:36:34;;;;;;;10.43;2.75;;;10.70;99.90;;;;;;2536625;23;20013;-74
2023/01/05 04:37:35;;;;;;;9.10;2.72;;;10.70;99.90;;;;;;2536397;23;20009;-73
2023/01/05 04:38:36;;;;;;;12.77;2.95;;;10.80;99.90;;;;;;2524270;23;20041;-73
2023/01/05 04:39:37;;;;;;;11.77;2.95;;;10.80;99.90;;;;;;2524438;23;20451;-76
2023/01/05 04:40:38;;;;;;;11.25;2.78;;;10.80;99.90;;;;;;2538388;23;20300;-74
2023/01/05 04:41:49;;;;;;;9.25;2.53;;;10.70;99.90;;;;;;2537605;23;20048;-74
2023/01/05 04:42:52;;;;;;;10.93;2.35;;;10.70;99.90;;;;;;2540898;23;20037;-74
2023/01/05 04:43:53;;;;;;;11.57;2.63;;;10.70;99.90;;;;;;2536582;23;20002;-74
2023/01/05 04:44:54;;;;;;;10.57;2.40;;;10.70;99.90;;;;;;2531623;23;20017;-75
2023/01/05 04:45:55;;;;;;;11.32;2.40;;;10.70;99.90;;;;;;2535867;23;20613;-74
2023/01/05 04:46:58;;;;;;;10.63;2.50;;;10.70;99.90;;;;;;2524844;23;20587;-75
2023/01/05 04:47:59;;;;;;;12.50;2.70;;;10.70;99.90;;;;;;2526509;23;20032;-74
2023/01/05 04:48:59;;;;;;;9.55;2.40;;;10.70;99.90;;;;;;2524344;23;20136;-73
2023/01/05 04:50:00;;;;;;;9.20;2.53;;;10.80;99.90;;;;;;2512392;23;20503;-73
2023/01/05 04:51:01;;;;;;;8.75;2.40;;;10.80;99.90;;;;;;2512006;23;20017;-75
2023/01/05 04:52:07;;;;;;;12.20;2.75;;;10.90;99.90;;;;;;2527686;23;20737;-73
2023/01/05 04:53:08;;;;;;;9.98;2.83;;;10.90;99.90;;;;;;2536231;23;20002;-74
2023/01/05 04:54:12;;;;;;;10.48;2.38;;;10.90;99.90;;;;;;2524689;23;20014;-75
2023/01/05 04:55:15;;;;;;;9.52;2.42;;;11.00;99.90;;;;;;2525317;23;20125;-76
2023/01/05 04:56:16;;;;;;;11.40;2.42;;;10.90;99.90;;;;;;2536415;23;20060;-75
2023/01/05 04:57:18;;;;;;;10.45;2.80;;;10.90;99.90;;;;;;2536204;23;20006;-75
2023/01/05 04:58:23;;;;;;;10.05;2.70;;;10.90;99.90;;;;;;2537977;23;20009;-75
2023/01/05 04:59:25;;;;;;;11.55;3.10;;;10.90;99.90;;;;;;2538346;23;20343;-75
2023/01/05 05:00:29;;;;;;;9.07;2.42;;;10.90;99.90;;;;;;2524638;23;20354;-74
2023/01/05 05:01:30;;;;;;;11.98;2.90;;;10.90;99.90;;;;;;2525795;23;20016;-75
2023/01/05 05:02:33;;;;;;;11.70;2.90;;;10.90;99.90;;;;;;2525113;23;20033;-73
2023/01/05 05:03:34;;;;;;;11.55;2.80;;;10.90;99.90;;;;;;2526191;23;20367;-73
2023/01/05 05:04:37;;;;;;;11.02;2.90;;;10.90;99.90;;;;;;2527134;23;20475;-74
2023/01/05 05:05:38;;;;;;;10.00;2.70;;;10.90;99.90;;;;;;2524675;23;20335;-75
2023/01/05 05:06:39;;;;;;;11.77;2.97;;;10.90;99.90;;;;;;2524591;23;20006;-74
2023/01/05 05:07:41;;;;;;;12.02;2.90;;;10.90;99.90;;;;;;2524187;23;20064;-75
2023/01/05 05:08:43;;;;;;;10.73;2.72;;;10.90;99.90;;;;;;2537157;23;20018;-74
2023/01/05 05:09:45;;;;;;;11.43;2.70;;;10.80;99.90;;;;;;2538516;23;20316;-75
2023/01/05 05:10:46;;;;;;;12.02;2.80;;;10.80;99.90;;;;;;2526847;23;20446;-74
2023/01/05 05:11:47;;;;;;;12.68;3.05;;;10.70;99.90;;;;;;2548033;23;20100;-74
2023/01/05 05:12:47;;;;;;;10.32;2.65;;;10.70;99.90;;;;;;2536289;23;20014;-73
2023/01/05 05:13:48;;;;;;;10.35;2.75;;;10.70;99.90;;;;;;2536201;23;20459;-74
2023/01/05 05:14:49;;;;;;;11.45;2.80;;;10.70;99.90;;;;;;2538343;23;20016;-75
2023/01/05 05:15:49;;;;;;;13.32;2.67;;;10.70;99.90;;;;;;2511867;23;20082;-75
2023/01/05 05:16:50;;;;;;;11.57;2.78;;;10.70;99.90;;;;;;2524372;23;20446;-74
2023/01/05 05:17:51;;;;;;;11.00;3.00;;;10.70;99.90;;;;;;2536112;23;20009;-74
2023/01/05 05:18:52;;;;;;;10.40;2.90;;;10.70;99.90;;;;;;2526223;23;20530;-74
2023/01/05 05:19:59;;;;;;;10.77;3.05;;;10.70;99.90;;;;;;2526531;23;20217;-73
2023/01/05 05:21:00;;;;;;;11.95;2.75;;;10.70;99.90;;;;;;2524148;23;20017;-76
2023/01/05 05:22:05;;;;;;;9.23;2.70;;;10.70;99.90;;;;;;2525543;23;20002;-74
2023/01/05 05:23:06;;;;;;;10.18;2.58;;;10.70;99.90;;;;;;2523872;23;20014;-73
2023/01/05 05:24:07;;;;;;;11.07;2.80;;;10.70;99.90;;;;;;2536466;23;20013;-73
2023/01/05 05:25:11;;;;;;;9.63;2.58;;;10.70;99.90;;;;;;2538284;23;20010;-73
2023/01/05 05:26:16;;;;;;;12.23;2.90;;;10.70;99.90;;;;;;2528105;23;20010;-74
2023/01/05 05:27:19;;;;;;;13.43;2.97;;;10.80;99.90;;;;;;2524364;23;20002;-74
2023/01/05 05:28:22;;;;;;;10.63;2.83;;;10.80;99.90;;;;;;2512408;23;20045;-74
2023/01/05 05:29:23;;;;;;;13.10;2.95;;;10.80;99.90;;;;;;2536499;23;20474;-76
2023/01/05 05:30:23;;;;;;;11.10;3.13;;;10.80;99.90;;;;;;2537931;23;20014;-74
2023/01/05 05:31:24;;;;;;;10.43;2.50;;;10.80;99.90;;;;;;2536289;23;20013;-73
2023/01/05 05:32:25;;;;;;;12.75;2.97;;;10.80;99.90;;;;;;2536420;23;20044;-75
2023/01/05 05:33:25;;;;;;;11.45;2.85;;;10.80;99.90;;;;;;2524477;23;20005;-74
2023/01/05 05:34:26;;;;;;;10.18;2.75;;;10.80;99.90;;;;;;2524247;23;20004;-74
2023/01/05 05:35:27;;;;;;;10.10;3.20;;;10.80;99.90;;;;;;2548918;23;20012;-74
2023/01/05 05:36:27;;;;;;;11.48;3.03;;;10.80;99.90;;;;;;2538165;23;20005;-74
2023/01/05 05:37:28;;;;;;;11.80;3.00;;;10.80;99.90;;;;;;2535937;23;20009;-73
2023/01/05 05:38:29;;;;;;;13.98;3.33;;;10.80;99.90;;;;;;2548400;23;20465;-74
2023/01/05 05:39:29;;;;;;;10.30;2.70;;;10.70;99.90;;;;;;2538256;23;20176;-75
2023/01/05 05:40:30;;;;;;;13.25;2.90;;;10.70;99.90;;;;;;2536184;23;20013;-73
2023/01/05 05:41:49;;;;;;;11.02;3.00;;;10.70;99.90;;;;;;2548055;23;20009;-74
2023/01/05 05:42:51;;;;;;;12.35;3.17;;;10.70;99.90;;;;;;2539784;23;20002;-73
2023/01/05 05:43:52;;;;;;;10.32;2.70;;;10.70;99.90;;;;;;2538290;23;20018;-73
2023/01/05 05:44:52;;;;;;;10.80;3.17;;;10.70;99.90;;;;;;2532211;23;20351;-73
2023/01/05 05:45:53;;;;;;;9.90;2.88;;;10.70;99.90;;;;;;2536176;23;20014;-74
2023/01/05 05:46:53;;;;;;;11.23;2.90;;;10.70;99.90;;;;;;2524881;23;20022;-73
2023/01/05 05:47:54;;;;;;;9.48;3.03;;;10.70;99.90;;;;;;2538634;23;20471;-74
2023/01/05 05:48:58;;;;;;;9.13;2.88;;;10.70;99.90;;;;;;2536704;23;20018;-73
2023/01/05 05:49:59;;;;;;;10.88;2.67;;;10.60;99.90;;;;;;2536680;23;20009;-73
2023/01/05 05:50:59;;;;;;;10.55;3.10;;;10.60;99.90;;;;;;2548521;23;20009;-73
2023/01/05 05:52:00;;;;;;;14.00;3.40;;;10.60;99.90;;;;;;2548429;23;20532;-74
2023/01/05 05:53:01;;;;;;;11.18;3.10;;;10.50;99.90;;;;;;2526358;23;20026;-74
2023/01/05 05:54:01;;;;;;;9.15;3.00;;;10.50;99.90;;;;;;2524026;23;20513;-74
2023/01/05 05:55:11;;;;;;;12.30;3.28;;;10.60;99.90;;;;;;2536337;23;20005;-73
2023/01/05 05:56:11;;;;;;;11.25;2.67;;;10.50;99.90;;;;;;2537846;23;20450;-73
2023/01/05 05:57:12;;;;;;;11.52;2.97;;;10.50;99.90;;;;;;2536237;23;20006;-74
2023/01/05 05:58:12;;;;;;;15.65;3.33;;;10.50;99.90;;;;;;2536506;23;20323;-74
2023/01/05 05:59:13;;;;;;;11.57;2.92;;;10.50;99.90;;;;;;2550668;23;20068;-74
2023/01/05 06:00:14;;;;;;;11.35;2.88;;;10.50;99.90;;;;;;2560540;23;20005;-75
2023/01/05 06:01:15;;;;;;;9.48;2.90;;;10.50;99.90;;;;;;2536088;23;20016;-73
2023/01/05 06:02:16;;;;;;;11.20;3.13;;;10.50;99.90;;;;;;2523827;23;20395;-73
2023/01/05 06:03:17;;;;;;;12.00;3.13;;;10.50;99.90;;;;;;2523966;23;20010;-73
2023/01/05 06:04:18;;;;;;;16.08;3.40;;;10.50;99.90;;;;;;2526075;23;20020;-73